sensor_id;sensor_type;location;lat;lon;timestamp;pressure;altitude;pressure_sealevel;temperature;humidity
54666;BME280;40566;50.006;36.180;2023-03-16T00:04:41;99169.59;;;7.66;67.62
54666;BME280;40566;50.006;36.180;2023-03-16T00:09:41;99165.19;;;7.70;67.37
54666;BME280;40566;50.006;36.180;2023-03-16T00:14:44;99163.41;;;7.72;67.37
54666;BME280;40566;50.006;36.180;2023-03-16T00:19:50;99145.50;;;7.67;67.07
54666;BME280;40566;50.006;36.180;2023-03-16T00:24:54;99146.47;;;7.63;67.55
54666;BME280;40566;50.006;36.180;2023-03-16T00:29:55;99155.16;;;7.59;67.60
54666;BME280;40566;50.006;36.180;2023-03-16T00:34:56;99155.16;;;7.59;67.61
54666;BME280;40566;50.006;36.180;2023-03-16T00:39:58;99148.25;;;7.61;67.64
54666;BME280;40566;50.006;36.180;2023-03-16T00:44:59;99156.91;;;7.59;67.67
54666;BME280;40566;50.006;36.180;2023-03-16T00:50:01;99149.13;;;7.60;67.73
54666;BME280;40566;50.006;36.180;2023-03-16T00:55:02;99140.41;;;7.66;67.49
54666;BME280;40566;50.006;36.180;2023-03-16T01:00:04;99158.34;;;7.69;68.14
54666;BME280;40566;50.006;36.180;2023-03-16T01:05:12;99140.91;;;7.46;68.06
54666;BME280;40566;50.006;36.180;2023-03-16T01:10:13;99148.56;;;7.49;68.21
54666;BME280;40566;50.006;36.180;2023-03-16T01:15:14;99152.00;;;7.48;68.22
54666;BME280;40566;50.006;36.180;2023-03-16T01:20:15;99147.75;;;7.47;68.44
54666;BME280;40566;50.006;36.180;2023-03-16T01:25:18;99139.28;;;7.43;68.72
54666;BME280;40566;50.006;36.180;2023-03-16T01:30:20;99149.72;;;7.37;68.83
54666;BME280;40566;50.006;36.180;2023-03-16T01:35:21;99152.31;;;7.35;69.06
54666;BME280;40566;50.006;36.180;2023-03-16T01:40:21;99156.66;;;7.33;69.02
54666;BME280;40566;50.006;36.180;2023-03-16T01:51:00;99143.66;;;7.38;68.77
54666;BME280;40566;50.006;36.180;2023-03-16T01:56:04;99129.28;;;7.31;68.98
54666;BME280;40566;50.006;36.180;2023-03-16T02:01:07;99141.03;;;7.41;68.88
54666;BME280;40566;50.006;36.180;2023-03-16T02:06:17;99154.75;;;7.40;69.01
54666;BME280;40566;50.006;36.180;2023-03-16T02:11:17;99163.25;;;7.44;68.83
54666;BME280;40566;50.006;36.180;2023-03-16T02:16:19;99166.72;;;7.43;68.83
54666;BME280;40566;50.006;36.180;2023-03-16T02:21:39;99164.16;;;7.43;69.02
54666;BME280;40566;50.006;36.180;2023-03-16T02:26:49;99172.63;;;7.46;68.91
54666;BME280;40566;50.006;36.180;2023-03-16T02:31:53;99176.16;;;7.42;68.85
54666;BME280;40566;50.006;36.180;2023-03-16T02:36:55;99170.84;;;7.48;69.04
54666;BME280;40566;50.006;36.180;2023-03-16T02:41:56;99170.81;;;7.50;69.10
54666;BME280;40566;50.006;36.180;2023-03-16T02:47:00;99161.44;;;7.49;69.45
54666;BME280;40566;50.006;36.180;2023-03-16T02:52:04;99158.13;;;7.44;69.53
54666;BME280;40566;50.006;36.180;2023-03-16T02:57:05;99149.56;;;7.43;69.66
54666;BME280;40566;50.006;36.180;2023-03-16T03:02:05;99153.75;;;7.47;69.76
54666;BME280;40566;50.006;36.180;2023-03-16T03:07:06;99144.28;;;7.48;69.84
54666;BME280;40566;50.006;36.180;2023-03-16T03:12:08;99132.22;;;7.50;69.92
54666;BME280;40566;50.006;36.180;2023-03-16T03:17:09;99150.25;;;7.50;70.00
54666;BME280;40566;50.006;36.180;2023-03-16T03:22:12;99139.84;;;7.54;69.85
54666;BME280;40566;50.006;36.180;2023-03-16T03:27:18;99148.09;;;7.67;70.34
54666;BME280;40566;50.006;36.180;2023-03-16T03:32:19;99143.09;;;7.61;70.35
54666;BME280;40566;50.006;36.180;2023-03-16T03:37:19;99148.28;;;7.60;70.54
54666;BME280;40566;50.006;36.180;2023-03-16T03:42:20;99146.59;;;7.59;70.76
54666;BME280;40566;50.006;36.180;2023-03-16T03:47:23;99145.72;;;7.60;70.69
54666;BME280;40566;50.006;36.180;2023-03-16T03:52:24;99157.75;;;7.59;70.81
54666;BME280;40566;50.006;36.180;2023-03-16T03:57:24;99164.66;;;7.57;70.83
54666;BME280;40566;50.006;36.180;2023-03-16T04:02:25;99168.09;;;7.56;70.92
54666;BME280;40566;50.006;36.180;2023-03-16T04:07:25;99159.63;;;7.52;71.08
54666;BME280;40566;50.006;36.180;2023-03-16T04:12:26;99162.13;;;7.55;71.13
54666;BME280;40566;50.006;36.180;2023-03-16T04:17:26;99153.47;;;7.58;71.17
54666;BME280;40566;50.006;36.180;2023-03-16T04:22:27;99166.13;;;7.66;71.31
54666;BME280;40566;50.006;36.180;2023-03-16T04:27:29;99157.44;;;7.70;71.22
54666;BME280;40566;50.006;36.180;2023-03-16T04:32:36;99161.63;;;7.74;71.25
54666;BME280;40566;50.006;36.180;2023-03-16T04:37:36;99158.84;;;7.83;71.33
54666;BME280;40566;50.006;36.180;2023-03-16T04:42:37;99147.56;;;7.87;71.17
54666;BME280;40566;50.006;36.180;2023-03-16T04:47:38;99141.44;;;7.91;71.19
54666;BME280;40566;50.006;36.180;2023-03-16T04:52:41;99138.03;;;7.91;71.46
54666;BME280;40566;50.006;36.180;2023-03-16T04:57:42;99125.25;;;7.88;71.67
54666;BME280;40566;50.006;36.180;2023-03-16T05:02:42;99115.00;;;7.86;71.95
54666;BME280;40566;50.006;36.180;2023-03-16T05:07:44;99107.97;;;7.91;71.89
54666;BME280;40566;50.006;36.180;2023-03-16T05:12:44;99122.38;;;7.99;71.82
54666;BME280;40566;50.006;36.180;2023-03-16T05:17:45;99125.63;;;8.05;71.54
54666;BME280;40566;50.006;36.180;2023-03-16T05:22:46;99134.06;;;8.10;71.77
54666;BME280;40566;50.006;36.180;2023-03-16T05:27:50;99127.13;;;8.14;71.65
54666;BME280;40566;50.006;36.180;2023-03-16T05:32:51;99139.03;;;8.18;71.62
54666;BME280;40566;50.006;36.180;2023-03-16T05:37:51;99141.44;;;8.24;71.71
54666;BME280;40566;50.006;36.180;2023-03-16T05:42:56;99137.81;;;8.31;71.42
54666;BME280;40566;50.006;36.180;2023-03-16T05:47:57;99135.94;;;8.35;71.36
54666;BME280;40566;50.006;36.180;2023-03-16T05:52:57;99142.78;;;8.38;71.39
54666;BME280;40566;50.006;36.180;2023-03-16T05:57:58;99153.81;;;8.43;71.37
54666;BME280;40566;50.006;36.180;2023-03-16T06:02:58;99150.00;;;8.56;71.41
54666;BME280;40566;50.006;36.180;2023-03-16T06:07:59;99148.84;;;8.66;71.05
54666;BME280;40566;50.006;36.180;2023-03-16T06:13:01;99151.91;;;8.79;70.74
54666;BME280;40566;50.006;36.180;2023-03-16T06:18:01;99133.53;;;8.88;70.73
54666;BME280;40566;50.006;36.180;2023-03-16T06:23:02;99137.72;;;8.92;70.78
54666;BME280;40566;50.006;36.180;2023-03-16T06:28:03;99131.34;;;9.04;70.64
54666;BME280;40566;50.006;36.180;2023-03-16T06:33:04;99138.00;;;9.11;70.50
54666;BME280;40566;50.006;36.180;2023-03-16T06:38:05;99152.25;;;9.23;70.61
54666;BME280;40566;50.006;36.180;2023-03-16T06:43:06;99137.41;;;9.30;70.30
54666;BME280;40566;50.006;36.180;2023-03-16T06:48:07;99140.78;;;9.32;70.33
54666;BME280;40566;50.006;36.180;2023-03-16T06:53:09;99145.75;;;9.38;70.24
54666;BME280;40566;50.006;36.180;2023-03-16T06:58:09;99136.59;;;9.28;70.53
54666;BME280;40566;50.006;36.180;2023-03-16T07:03:11;99140.53;;;9.40;70.53
54666;BME280;40566;50.006;36.180;2023-03-16T07:08:12;99144.50;;;9.50;70.39
54666;BME280;40566;50.006;36.180;2023-03-16T07:13:14;99149.84;;;9.44;70.48
54666;BME280;40566;50.006;36.180;2023-03-16T07:18:14;99165.84;;;9.55;70.42
54666;BME280;40566;50.006;36.180;2023-03-16T07:23:15;99156.09;;;9.38;70.62
54666;BME280;40566;50.006;36.180;2023-03-16T07:28:17;99164.41;;;9.46;70.70
54666;BME280;40566;50.006;36.180;2023-03-16T07:33:17;99145.06;;;9.60;70.38
54666;BME280;40566;50.006;36.180;2023-03-16T07:38:18;99143.06;;;9.68;70.11
54666;BME280;40566;50.006;36.180;2023-03-16T07:43:20;99135.13;;;9.72;70.02
54666;BME280;40566;50.006;36.180;2023-03-16T07:48:21;99152.78;;;9.85;69.99
54666;BME280;40566;50.006;36.180;2023-03-16T07:53:21;99152.44;;;9.96;69.75
54666;BME280;40566;50.006;36.180;2023-03-16T07:58:22;99143.91;;;9.93;69.44
54666;BME280;40566;50.006;36.180;2023-03-16T08:03:24;99132.78;;;9.91;69.69
54666;BME280;40566;50.006;36.180;2023-03-16T08:08:24;99126.91;;;9.86;69.90
54666;BME280;40566;50.006;36.180;2023-03-16T08:13:25;99127.72;;;9.88;70.05
54666;BME280;40566;50.006;36.180;2023-03-16T08:18:28;99115.63;;;9.89;70.11
54666;BME280;40566;50.006;36.180;2023-03-16T08:23:29;99119.84;;;9.91;70.11
54666;BME280;40566;50.006;36.180;2023-03-16T08:28:29;99123.09;;;9.97;70.31
54666;BME280;40566;50.006;36.180;2023-03-16T08:33:31;99122.28;;;10.20;69.77
54666;BME280;40566;50.006;36.180;2023-03-16T08:38:31;99128.78;;;10.31;69.61
54666;BME280;40566;50.006;36.180;2023-03-16T08:43:34;99130.66;;;10.26;69.63
54666;BME280;40566;50.006;36.180;2023-03-16T08:48:34;99139.41;;;10.22;70.00
54666;BME280;40566;50.006;36.180;2023-03-16T08:53:35;99145.78;;;10.13;70.18
54666;BME280;40566;50.006;36.180;2023-03-16T08:58:36;99136.84;;;9.97;70.46
54666;BME280;40566;50.006;36.180;2023-03-16T09:03:37;99123.75;;;9.78;70.92
54666;BME280;40566;50.006;36.180;2023-03-16T09:08:38;99108.78;;;9.63;71.34
54666;BME280;40566;50.006;36.180;2023-03-16T09:13:40;99119.94;;;9.63;71.36
54666;BME280;40566;50.006;36.180;2023-03-16T09:18:41;99123.31;;;9.65;71.22
54666;BME280;40566;50.006;36.180;2023-03-16T09:23:42;99134.53;;;9.66;71.44
54666;BME280;40566;50.006;36.180;2023-03-16T09:28:43;99135.53;;;9.62;71.46
54666;BME280;40566;50.006;36.180;2023-03-16T09:33:44;99133.06;;;9.57;71.66
54666;BME280;40566;50.006;36.180;2023-03-16T09:38:46;99149.00;;;9.70;71.88
54666;BME280;40566;50.006;36.180;2023-03-16T09:48:57;99141.09;;;10.00;71.55
54666;BME280;40566;50.006;36.180;2023-03-16T09:54:01;99131.28;;;10.09;71.31
54666;BME280;40566;50.006;36.180;2023-03-16T09:59:09;99132.28;;;10.05;71.50
54666;BME280;40566;50.006;36.180;2023-03-16T10:04:31;99143.72;;;9.98;71.69
54666;BME280;40566;50.006;36.180;2023-03-16T10:26:38;99155.63;;;10.27;71.67
54666;BME280;40566;50.006;36.180;2023-03-16T10:31:43;99163.34;;;10.04;72.21
54666;BME280;40566;50.006;36.180;2023-03-16T10:36:44;99166.97;;;9.98;72.15
54666;BME280;40566;50.006;36.180;2023-03-16T10:41:54;99156.81;;;9.93;71.95
54666;BME280;40566;50.006;36.180;2023-03-16T10:47:03;99161.50;;;9.82;72.16
54666;BME280;40566;50.006;36.180;2023-03-16T10:57:24;99171.34;;;9.71;72.20
54666;BME280;40566;50.006;36.180;2023-03-16T11:02:33;99172.03;;;9.76;72.16
54666;BME280;40566;50.006;36.180;2023-03-16T11:07:34;99178.75;;;9.82;71.99
54666;BME280;40566;50.006;36.180;2023-03-16T11:12:35;99185.53;;;9.84;71.87
54666;BME280;40566;50.006;36.180;2023-03-16T11:17:42;99183.53;;;9.92;71.85
54666;BME280;40566;50.006;36.180;2023-03-16T11:22:45;99187.38;;;9.81;72.09
54666;BME280;40566;50.006;36.180;2023-03-16T11:27:55;99182.47;;;9.73;72.33
54666;BME280;40566;50.006;36.180;2023-03-16T11:32:58;99200.00;;;9.63;72.68
54666;BME280;40566;50.006;36.180;2023-03-16T11:38:19;99188.94;;;9.60;72.66
54666;BME280;40566;50.006;36.180;2023-03-16T12:15:18;99206.44;;;9.23;73.93
54666;BME280;40566;50.006;36.180;2023-03-16T12:20:25;99196.91;;;9.25;74.11
54666;BME280;40566;50.006;36.180;2023-03-16T12:25:32;99195.13;;;9.27;74.04
54666;BME280;40566;50.006;36.180;2023-03-16T12:30:49;99191.66;;;9.28;74.09
54666;BME280;40566;50.006;36.180;2023-03-16T12:36:02;99189.88;;;9.30;74.12
54666;BME280;40566;50.006;36.180;2023-03-16T12:52:05;99182.38;;;9.23;74.54
54666;BME280;40566;50.006;36.180;2023-03-16T12:57:07;99181.63;;;9.19;75.13
54666;BME280;40566;50.006;36.180;2023-03-16T13:02:14;99177.59;;;9.10;75.27
54666;BME280;40566;50.006;36.180;2023-03-16T13:12:27;99174.34;;;9.04;75.44
54666;BME280;40566;50.006;36.180;2023-03-16T13:17:31;99189.63;;;9.10;75.32
54666;BME280;40566;50.006;36.180;2023-03-16T13:27:47;99182.63;;;9.15;75.05
54666;BME280;40566;50.006;36.180;2023-03-16T13:32:53;99188.59;;;9.16;75.14
54666;BME280;40566;50.006;36.180;2023-03-16T13:38:00;99198.88;;;9.17;75.01
54666;BME280;40566;50.006;36.180;2023-03-16T13:43:02;99197.94;;;9.20;74.91
54666;BME280;40566;50.006;36.180;2023-03-16T13:48:03;99187.63;;;9.20;74.83
54666;BME280;40566;50.006;36.180;2023-03-16T13:53:12;99179.84;;;9.21;74.66
54666;BME280;40566;50.006;36.180;2023-03-16T13:58:33;99187.28;;;9.02;75.04
54666;BME280;40566;50.006;36.180;2023-03-16T14:03:37;99192.53;;;9.01;75.21
54666;BME280;40566;50.006;36.180;2023-03-16T14:08:39;99209.03;;;8.95;75.17
54666;BME280;40566;50.006;36.180;2023-03-16T14:13:41;99215.06;;;8.94;75.02
54666;BME280;40566;50.006;36.180;2023-03-16T14:18:47;99217.22;;;8.80;75.26
54666;BME280;40566;50.006;36.180;2023-03-16T14:23:59;99213.69;;;8.82;75.12
54666;BME280;40566;50.006;36.180;2023-03-16T14:34:49;99229.66;;;8.65;75.16
54666;BME280;40566;50.006;36.180;2023-03-16T14:40:00;99224.56;;;8.62;75.24
54666;BME280;40566;50.006;36.180;2023-03-16T14:45:08;99235.78;;;8.61;75.33
54666;BME280;40566;50.006;36.180;2023-03-16T14:50:22;99239.44;;;8.52;75.33
54666;BME280;40566;50.006;36.180;2023-03-16T14:55:23;99247.34;;;8.46;75.50
54666;BME280;40566;50.006;36.180;2023-03-16T15:00:24;99251.44;;;8.55;75.37
54666;BME280;40566;50.006;36.180;2023-03-16T15:05:30;99245.44;;;8.53;75.24
54666;BME280;40566;50.006;36.180;2023-03-16T15:10:33;99255.69;;;8.56;75.36
54666;BME280;40566;50.006;36.180;2023-03-16T15:15:35;99278.00;;;8.57;75.18
54666;BME280;40566;50.006;36.180;2023-03-16T15:20:42;99265.53;;;8.42;75.28
54666;BME280;40566;50.006;36.180;2023-03-16T15:25:45;99290.63;;;8.33;75.74
54666;BME280;40566;50.006;36.180;2023-03-16T15:30:49;99285.41;;;8.35;75.44
54666;BME280;40566;50.006;36.180;2023-03-16T15:35:53;99290.69;;;8.30;75.39
54666;BME280;40566;50.006;36.180;2023-03-16T15:40:58;99300.22;;;8.27;75.39
54666;BME280;40566;50.006;36.180;2023-03-16T15:45:58;99308.78;;;8.29;75.30
54666;BME280;40566;50.006;36.180;2023-03-16T15:51:18;99311.31;;;8.30;74.94
54666;BME280;40566;50.006;36.180;2023-03-16T15:56:23;99314.69;;;8.32;75.00
54666;BME280;40566;50.006;36.180;2023-03-16T16:01:31;99327.00;;;8.21;75.08
54666;BME280;40566;50.006;36.180;2023-03-16T16:06:37;99333.03;;;8.20;75.07
54666;BME280;40566;50.006;36.180;2023-03-16T16:11:38;99343.34;;;8.20;75.12
54666;BME280;40566;50.006;36.180;2023-03-16T16:16:41;99356.13;;;8.23;74.76
54666;BME280;40566;50.006;36.180;2023-03-16T16:21:44;99364.69;;;8.25;74.91
54666;BME280;40566;50.006;36.180;2023-03-16T16:26:46;99368.13;;;8.26;75.02
54666;BME280;40566;50.006;36.180;2023-03-16T16:31:51;99371.59;;;8.23;75.10
54666;BME280;40566;50.006;36.180;2023-03-16T16:36:53;99368.97;;;8.26;75.03
54666;BME280;40566;50.006;36.180;2023-03-16T16:41:54;99367.31;;;8.24;74.99
54666;BME280;40566;50.006;36.180;2023-03-16T16:46:55;99371.75;;;8.17;75.18
54666;BME280;40566;50.006;36.180;2023-03-16T16:51:57;99368.50;;;8.10;75.31
54666;BME280;40566;50.006;36.180;2023-03-16T16:57:00;99373.69;;;8.07;75.27
54666;BME280;40566;50.006;36.180;2023-03-16T17:02:01;99369.34;;;8.09;75.20
54666;BME280;40566;50.006;36.180;2023-03-16T17:07:12;99367.84;;;8.01;75.44
54666;BME280;40566;50.006;36.180;2023-03-16T17:12:21;99374.59;;;8.06;75.33
54666;BME280;40566;50.006;36.180;2023-03-16T17:17:22;99381.34;;;8.12;75.01
54666;BME280;40566;50.006;36.180;2023-03-16T17:22:25;99377.06;;;8.11;75.03
54666;BME280;40566;50.006;36.180;2023-03-16T17:27:29;99372.03;;;8.06;75.15
54666;BME280;40566;50.006;36.180;2023-03-16T17:32:31;99378.97;;;8.03;75.26
54666;BME280;40566;50.006;36.180;2023-03-16T17:37:32;99376.59;;;7.93;75.45
54666;BME280;40566;50.006;36.180;2023-03-16T17:42:32;99366.38;;;7.90;75.60
54666;BME280;40566;50.006;36.180;2023-03-16T17:47:33;99369.00;;;7.89;75.48
54666;BME280;40566;50.006;36.180;2023-03-16T17:52:38;99378.22;;;7.98;75.40
54666;BME280;40566;50.006;36.180;2023-03-16T17:57:39;99379.97;;;7.95;75.63
54666;BME280;40566;50.006;36.180;2023-03-16T18:07:50;99357.69;;;7.94;75.30
54666;BME280;40566;50.006;36.180;2023-03-16T18:13:00;99352.69;;;7.88;75.41
54666;BME280;40566;50.006;36.180;2023-03-16T18:18:03;99349.50;;;7.77;75.77
54666;BME280;40566;50.006;36.180;2023-03-16T18:23:25;99349.69;;;7.69;75.87
54666;BME280;40566;50.006;36.180;2023-03-16T18:28:26;99352.22;;;7.71;75.79
54666;BME280;40566;50.006;36.180;2023-03-16T18:38:30;99360.75;;;7.74;75.86
54666;BME280;40566;50.006;36.180;2023-03-16T18:43:31;99363.28;;;7.76;75.71
54666;BME280;40566;50.006;36.180;2023-03-16T18:48:33;99358.19;;;7.73;75.65
54666;BME280;40566;50.006;36.180;2023-03-16T18:53:34;99386.38;;;7.79;75.28
54666;BME280;40566;50.006;36.180;2023-03-16T18:58:35;99375.25;;;7.77;75.19
54666;BME280;40566;50.006;36.180;2023-03-16T19:03:41;99391.78;;;7.67;75.60
54666;BME280;40566;50.006;36.180;2023-03-16T19:08:43;99396.94;;;7.67;75.74
54666;BME280;40566;50.006;36.180;2023-03-16T19:13:44;99401.16;;;7.69;75.67
54666;BME280;40566;50.006;36.180;2023-03-16T19:18:44;99410.53;;;7.72;75.49
54666;BME280;40566;50.006;36.180;2023-03-16T19:23:57;99412.22;;;7.74;75.21
54666;BME280;40566;50.006;36.180;2023-03-16T19:29:01;99414.69;;;7.79;75.03
54666;BME280;40566;50.006;36.180;2023-03-16T19:34:02;99431.75;;;7.85;74.97
54666;BME280;40566;50.006;36.180;2023-03-16T19:39:03;99418.09;;;7.80;75.06
54666;BME280;40566;50.006;36.180;2023-03-16T19:44:13;99415.66;;;7.73;75.31
54666;BME280;40566;50.006;36.180;2023-03-16T19:49:20;99415.81;;;7.66;75.43
54666;BME280;40566;50.006;36.180;2023-03-16T19:54:26;99415.00;;;7.64;75.56
54666;BME280;40566;50.006;36.180;2023-03-16T19:59:31;99415.16;;;7.58;75.57
54666;BME280;40566;50.006;36.180;2023-03-16T20:04:32;99421.88;;;7.65;75.46
54666;BME280;40566;50.006;36.180;2023-03-16T20:09:33;99422.81;;;7.61;75.64
54666;BME280;40566;50.006;36.180;2023-03-16T20:14:33;99422.94;;;7.54;75.48
54666;BME280;40566;50.006;36.180;2023-03-16T20:19:34;99418.63;;;7.55;75.45
54666;BME280;40566;50.006;36.180;2023-03-16T20:24:35;99410.19;;;7.48;75.69
54666;BME280;40566;50.006;36.180;2023-03-16T20:29:36;99410.25;;;7.45;75.71
54666;BME280;40566;50.006;36.180;2023-03-16T20:34:37;99420.69;;;7.39;76.01
54666;BME280;40566;50.006;36.180;2023-03-16T20:39:38;99411.38;;;7.32;76.15
54666;BME280;40566;50.006;36.180;2023-03-16T20:44:39;99424.38;;;7.26;76.38
54666;BME280;40566;50.006;36.180;2023-03-16T20:49:40;99432.09;;;7.24;76.47
54666;BME280;40566;50.006;36.180;2023-03-16T20:54:41;99426.06;;;7.27;76.18
54666;BME280;40566;50.006;36.180;2023-03-16T20:59:42;99431.22;;;7.27;76.23
54666;BME280;40566;50.006;36.180;2023-03-16T21:04:44;99420.13;;;7.23;76.14
54666;BME280;40566;50.006;36.180;2023-03-16T21:09:45;99438.94;;;7.27;76.41
54666;BME280;40566;50.006;36.180;2023-03-16T21:14:48;99439.91;;;7.21;76.30
54666;BME280;40566;50.006;36.180;2023-03-16T21:19:49;99431.31;;;7.21;76.14
54666;BME280;40566;50.006;36.180;2023-03-16T21:24:51;99422.59;;;7.29;75.92
54666;BME280;40566;50.006;36.180;2023-03-16T21:29:53;99426.00;;;7.30;75.81
54666;BME280;40566;50.006;36.180;2023-03-16T21:34:55;99430.16;;;7.37;75.70
54666;BME280;40566;50.006;36.180;2023-03-16T21:39:56;99436.25;;;7.31;75.56
54666;BME280;40566;50.006;36.180;2023-03-16T21:44:56;99437.19;;;7.29;75.68
54666;BME280;40566;50.006;36.180;2023-03-16T21:49:57;99423.50;;;7.27;75.59
54666;BME280;40566;50.006;36.180;2023-03-16T21:54:58;99427.75;;;7.28;75.60
54666;BME280;40566;50.006;36.180;2023-03-16T21:59:59;99432.09;;;7.24;75.55
54666;BME280;40566;50.006;36.180;2023-03-16T22:05:00;99432.09;;;7.26;75.67
54666;BME280;40566;50.006;36.180;2023-03-16T22:10:04;99451.81;;;7.27;75.41
54666;BME280;40566;50.006;36.180;2023-03-16T22:15:12;99448.50;;;7.19;75.68
54666;BME280;40566;50.006;36.180;2023-03-16T22:20:16;99461.38;;;7.19;75.68
54666;BME280;40566;50.006;36.180;2023-03-16T22:25:20;99458.75;;;7.22;75.76
54666;BME280;40566;50.006;36.180;2023-03-16T22:30:25;99436.47;;;7.21;75.58
54666;BME280;40566;50.006;36.180;2023-03-16T22:40:29;99440.03;;;7.15;75.84
54666;BME280;40566;50.006;36.180;2023-03-16T22:45:32;99445.97;;;7.17;75.88
54666;BME280;40566;50.006;36.180;2023-03-16T22:50:33;99449.28;;;7.22;75.82
54666;BME280;40566;50.006;36.180;2023-03-16T22:55:37;99442.41;;;7.24;75.55
54666;BME280;40566;50.006;36.180;2023-03-16T23:00:39;99425.31;;;7.20;75.81
54666;BME280;40566;50.006;36.180;2023-03-16T23:05:39;99425.44;;;7.15;75.95
54666;BME280;40566;50.006;36.180;2023-03-16T23:10:40;99407.53;;;7.09;75.95
54666;BME280;40566;50.006;36.180;2023-03-16T23:15:43;99417.16;;;7.00;76.46
54666;BME280;40566;50.006;36.180;2023-03-16T23:20:45;99415.41;;;7.00;76.38
54666;BME280;40566;50.006;36.180;2023-03-16T23:25:46;99413.88;;;6.91;76.49
54666;BME280;40566;50.006;36.180;2023-03-16T23:30:47;99412.97;;;6.94;76.28
54666;BME280;40566;50.006;36.180;2023-03-16T23:35:48;99403.63;;;6.88;76.48
54666;BME280;40566;50.006;36.180;2023-03-16T23:40:49;99404.47;;;6.89;76.44
54666;BME280;40566;50.006;36.180;2023-03-16T23:45:49;99398.50;;;6.88;76.41
54666;BME280;40566;50.006;36.180;2023-03-16T23:50:52;99404.47;;;6.89;76.24
54666;BME280;40566;50.006;36.180;2023-03-16T23:55:54;99403.72;;;6.84;76.43
